Time;durP1;ratioP1;P1;durP2;ratioP2;P2;SDS_P1;SDS_P2;PMS_P1;PMS_P2;Temp;Humidity;BMP_temperature;BMP_pressure;BME280_temperature;BME280_humidity;BME280_pressure;Samples;Min_cycle;Max_cycle;Signal;HPM_P1;HPM_P2
2023/03/05 00:01:40;;;;;;;0.87;0.87;;;1.90;93.40;;;;;;5053568;28;20188;-69
2023/03/05 00:04:09;;;;;;;2.30;2.10;;;2.00;93.20;;;;;;5053521;28;20459;-69
2023/03/05 00:06:35;;;;;;;6.82;3.55;;;1.90;93.20;;;;;;5035912;28;20404;-68
2023/03/05 00:09:02;;;;;;;1.03;1.03;;;1.90;93.40;;;;;;5053751;28;20194;-68
2023/03/05 00:11:29;;;;;;;1.52;1.40;;;1.80;93.90;;;;;;5053555;28;20689;-69
2023/03/05 00:13:55;;;;;;;5.88;3.00;;;1.90;94.30;;;;;;5053219;28;20210;-69
2023/03/05 00:16:22;;;;;;;2.45;0.80;;;2.00;94.40;;;;;;5035634;28;20244;-69
2023/03/05 00:18:48;;;;;;;8.30;3.38;;;2.10;94.40;;;;;;5053551;28;20174;-68
2023/03/05 00:21:21;;;;;;;4.95;3.92;;;2.20;94.00;;;;;;5053461;28;20688;-68
2023/03/05 00:23:47;;;;;;;2.70;1.75;;;2.20;94.00;;;;;;5053075;28;20207;-69
2023/03/05 00:26:12;;;;;;;2.77;2.67;;;2.10;93.40;;;;;;5053501;28;20173;-69
2023/03/05 00:28:38;;;;;;;2.13;2.00;;;2.00;93.30;;;;;;5053409;28;20695;-69
2023/03/05 00:31:04;;;;;;;3.90;3.70;;;2.10;93.60;;;;;;5053209;28;20650;-68
2023/03/05 00:33:30;;;;;;;1.63;1.52;;;2.20;93.90;;;;;;5053249;28;20251;-68
2023/03/05 00:35:56;;;;;;;6.10;1.93;;;2.30;93.90;;;;;;5053429;28;20221;-69
2023/03/05 00:38:22;;;;;;;0.97;0.97;;;2.30;93.70;;;;;;5053354;28;20174;-69
2023/03/05 00:40:49;;;;;;;2.73;2.37;;;2.40;93.40;;;;;;5053121;28;20431;-68
2023/03/05 00:43:15;;;;;;;4.63;4.07;;;2.30;93.10;;;;;;5052986;28;20819;-68
2023/03/05 00:45:41;;;;;;;2.40;2.25;;;2.60;93.10;;;;;;5053244;28;20269;-68
2023/03/05 00:48:06;;;;;;;5.90;3.10;;;2.40;93.00;;;;;;5053783;28;20170;-68
2023/03/05 00:50:32;;;;;;;2.50;2.30;;;2.40;92.90;;;;;;5035117;28;20204;-68
2023/03/05 00:52:58;;;;;;;2.87;2.77;;;2.30;92.80;;;;;;5053008;28;20166;-68
2023/03/05 00:55:23;;;;;;;4.37;3.70;;;2.30;93.20;;;;;;5052854;28;20739;-69
2023/03/05 00:57:49;;;;;;;2.40;2.30;;;2.30;93.60;;;;;;5053111;28;20693;-69
2023/03/05 01:00:16;;;;;;;9.03;1.57;;;2.40;93.70;;;;;;5035121;28;20198;-69
2023/03/05 01:02:42;;;;;;;1.75;1.02;;;2.40;93.50;;;;;;5052957;28;20266;-69
2023/03/05 01:05:12;;;;;;;0.60;0.60;;;2.50;93.40;;;;;;5053035;28;20177;-68
2023/03/05 01:07:39;;;;;;;5.10;2.80;;;2.40;93.50;;;;;;5053344;28;20882;-68
2023/03/05 01:10:06;;;;;;;10.75;5.93;;;2.50;93.50;;;;;;5052839;28;20288;-68
2023/03/05 01:12:31;;;;;;;2.22;2.03;;;2.50;93.50;;;;;;5052880;28;20189;-69
2023/03/05 01:14:57;;;;;;;2.33;2.23;;;2.50;93.70;;;;;;5034969;28;20177;-69
2023/03/05 01:17:22;;;;;;;0.50;0.50;;;2.60;93.90;;;;;;5035167;28;20523;-68
2023/03/05 01:19:48;;;;;;;3.13;2.60;;;2.60;93.70;;;;;;5052900;28;20186;-68
2023/03/05 01:22:14;;;;;;;2.27;2.17;;;2.60;93.50;;;;;;5052714;28;20259;-69
2023/03/05 01:24:39;;;;;;;4.60;4.30;;;2.60;93.40;;;;;;5052787;28;20173;-69
2023/03/05 01:27:05;;;;;;;1.23;1.23;;;2.60;93.40;;;;;;5056732;28;20166;-68
2023/03/05 01:29:30;;;;;;;5.00;4.33;;;2.70;93.60;;;;;;5056588;28;20197;-68
2023/03/05 01:31:56;;;;;;;2.77;2.67;;;2.80;93.50;;;;;;5056545;28;20170;-68
2023/03/05 01:34:22;;;;;;;3.10;2.97;;;2.80;93.50;;;;;;5056395;28;20170;-68
2023/03/05 01:36:49;;;;;;;1.20;1.20;;;2.80;93.70;;;;;;5056680;28;20169;-68
2023/03/05 01:39:15;;;;;;;3.60;2.72;;;2.80;93.90;;;;;;5056295;28;20253;-69
2023/03/05 01:41:41;;;;;;;4.47;4.18;;;2.80;93.90;;;;;;5056340;28;20174;-68
2023/03/05 01:44:22;;;;;;;3.13;2.37;;;2.80;93.80;;;;;;5056067;28;20247;-69
2023/03/05 01:46:47;;;;;;;1.77;1.67;;;2.90;93.80;;;;;;5056470;28;20479;-69
2023/03/05 01:49:13;;;;;;;4.07;3.77;;;2.90;93.80;;;;;;5056316;28;20297;-68
2023/03/05 01:51:58;;;;;;;2.20;2.10;;;2.90;93.80;;;;;;5056158;28;20177;-69
2023/03/05 01:54:34;;;;;;;4.78;4.57;;;2.80;93.90;;;;;;5056127;28;20170;-68
2023/03/05 01:57:07;;;;;;;4.20;2.33;;;2.90;94.20;;;;;;5038423;28;20243;-68
2023/03/05 01:59:35;;;;;;;2.97;2.88;;;2.80;94.20;;;;;;5056091;28;20221;-69
2023/03/05 02:02:01;;;;;;;12.55;4.50;;;2.90;94.10;;;;;;5055848;28;20655;-69
2023/03/05 02:04:35;;;;;;;2.25;1.65;;;2.90;94.00;;;;;;5055881;28;20171;-69
2023/03/05 02:07:01;;;;;;;3.80;2.10;;;2.90;93.70;;;;;;5055944;28;20176;-68
2023/03/05 02:09:27;;;;;;;4.38;2.85;;;2.90;93.40;;;;;;5055923;28;20700;-68
2023/03/05 02:11:54;;;;;;;2.33;2.13;;;2.90;93.50;;;;;;5055722;28;20171;-68
2023/03/05 02:14:19;;;;;;;3.17;2.88;;;2.90;93.60;;;;;;5055517;28;20175;-69
2023/03/05 02:16:45;;;;;;;4.27;3.90;;;2.90;93.90;;;;;;5055608;28;20196;-69
2023/03/05 02:19:12;;;;;;;4.73;4.23;;;2.90;94.00;;;;;;5055638;28;20186;-69
2023/03/05 02:21:44;;;;;;;2.67;2.17;;;3.00;93.90;;;;;;5055696;28;20663;-68
2023/03/05 02:24:15;;;;;;;2.85;1.95;;;3.00;93.60;;;;;;5055432;28;20202;-69
2023/03/05 02:26:43;;;;;;;2.53;2.35;;;2.90;93.60;;;;;;5055722;28;20566;-68
2023/03/05 02:29:11;;;;;;;5.78;1.60;;;2.90;93.70;;;;;;5055391;28;20197;-68
2023/03/05 02:31:37;;;;;;;5.65;3.90;;;2.90;93.40;;;;;;5055610;28;20175;-68
2023/03/05 02:34:04;;;;;;;1.60;1.50;;;2.90;93.20;;;;;;5055344;28;20178;-68
2023/03/05 02:36:29;;;;;;;6.38;4.13;;;2.90;92.90;;;;;;5055380;28;20462;-68
2023/03/05 02:38:55;;;;;;;5.23;4.77;;;2.90;92.50;;;;;;5055407;28;20182;-69
2023/03/05 02:41:22;;;;;;;7.68;4.78;;;2.70;92.60;;;;;;5055189;28;20642;-69
2023/03/05 02:43:48;;;;;;;2.78;2.58;;;2.70;93.10;;;;;;5054945;28;20208;-68
2023/03/05 02:46:13;;;;;;;2.40;2.30;;;2.60;92.60;;;;;;5055222;28;20173;-69
2023/03/05 02:48:39;;;;;;;4.80;2.83;;;2.50;92.60;;;;;;5055283;28;20172;-68
2023/03/05 02:51:05;;;;;;;5.63;2.87;;;2.40;92.70;;;;;;5055020;28;20189;-69
2023/03/05 02:53:32;;;;;;;5.38;4.03;;;2.30;92.80;;;;;;5055018;28;20680;-69
2023/03/05 02:55:57;;;;;;;2.55;2.45;;;2.20;92.90;;;;;;5055166;28;20178;-68
2023/03/05 02:58:23;;;;;;;1.23;1.23;;;2.20;92.90;;;;;;5037096;28;20188;-68
2023/03/05 03:00:49;;;;;;;5.20;4.70;;;2.10;92.80;;;;;;5054760;28;20201;-68
2023/03/05 03:03:15;;;;;;;3.13;3.00;;;2.10;92.90;;;;;;5054772;28;20197;-68
2023/03/05 03:05:40;;;;;;;1.83;1.77;;;1.90;92.90;;;;;;5055030;28;20175;-68
2023/03/05 03:08:06;;;;;;;1.10;1.10;;;1.80;93.20;;;;;;5054905;28;20395;-68
2023/03/05 03:10:32;;;;;;;3.20;3.00;;;1.60;93.60;;;;;;5054699;28;20275;-68
2023/03/05 03:12:58;;;;;;;3.00;2.72;;;1.60;94.00;;;;;;5054787;28;20176;-68
2023/03/05 03:15:24;;;;;;;2.23;1.80;;;1.60;93.90;;;;;;5054495;28;20230;-68
2023/03/05 03:17:50;;;;;;;5.30;1.83;;;1.50;94.10;;;;;;5036834;28;20411;-68
2023/03/05 03:20:16;;;;;;;0.40;0.40;;;1.40;94.20;;;;;;5054508;28;20797;-68
2023/03/05 03:22:44;;;;;;;1.98;1.90;;;1.30;94.20;;;;;;5054363;28;20599;-68
2023/03/05 03:25:14;;;;;;;1.58;1.48;;;1.20;94.40;;;;;;5054308;28;20167;-69
2023/03/05 03:27:39;;;;;;;5.43;3.20;;;1.20;94.60;;;;;;5054790;28;20159;-68
2023/03/05 03:30:06;;;;;;;1.80;1.70;;;1.20;94.60;;;;;;5054395;28;20190;-68
2023/03/05 03:32:32;;;;;;;1.15;1.15;;;1.20;94.60;;;;;;5054384;28;20171;-68
2023/03/05 03:34:58;;;;;;;30.35;2.97;;;1.00;94.50;;;;;;5054104;28;20270;-69
2023/03/05 03:37:24;;;;;;;5.85;2.10;;;0.90;94.80;;;;;;5036225;28;20248;-68
2023/03/05 03:39:50;;;;;;;1.85;1.73;;;0.80;95.00;;;;;;5054050;28;20615;-68
2023/03/05 03:42:18;;;;;;;3.85;2.88;;;0.80;95.20;;;;;;5036190;28;20294;-68
2023/03/05 03:44:43;;;;;;;24.95;2.90;;;0.80;95.30;;;;;;5053957;28;20251;-68
2023/03/05 03:47:09;;;;;;;0.83;0.83;;;0.80;95.50;;;;;;5054030;28;20298;-68
2023/03/05 03:49:35;;;;;;;3.00;2.80;;;0.90;95.20;;;;;;5053580;28;20274;-69
2023/03/05 03:52:00;;;;;;;2.10;2.00;;;0.90;95.10;;;;;;5053886;28;20171;-68
2023/03/05 03:54:26;;;;;;;4.87;4.50;;;0.80;95.20;;;;;;5035878;28;20179;-68
2023/03/05 03:56:52;;;;;;;2.30;1.13;;;0.60;95.20;;;;;;5054000;28;20184;-68
2023/03/05 03:59:18;;;;;;;0.60;0.60;;;0.60;95.60;;;;;;5054049;28;20185;-68
2023/03/05 04:01:44;;;;;;;1.13;1.00;;;0.60;95.60;;;;;;5053577;28;20511;-68
2023/03/05 04:04:11;;;;;;;1.07;1.07;;;0.50;95.40;;;;;;5053518;28;20624;-68
2023/03/05 04:06:37;;;;;;;1.30;1.23;;;0.50;95.60;;;;;;5053581;28;20181;-68
2023/03/05 04:09:03;;;;;;;0.83;0.83;;;0.50;95.70;;;;;;5053957;28;20663;-68
2023/03/05 04:11:29;;;;;;;0.90;0.90;;;0.50;95.80;;;;;;5035735;28;20401;-68
2023/03/05 04:13:54;;;;;;;1.23;1.23;;;0.50;95.70;;;;;;5053366;28;20547;-68
2023/03/05 04:16:20;;;;;;;1.50;1.50;;;0.40;95.80;;;;;;5053463;28;20409;-68
2023/03/05 04:18:46;;;;;;;1.03;0.77;;;0.30;95.90;;;;;;5053681;28;20194;-68
2023/03/05 04:21:12;;;;;;;1.17;1.17;;;0.30;96.10;;;;;;5053421;28;20180;-68
2023/03/05 04:23:38;;;;;;;0.30;0.30;;;0.20;96.10;;;;;;5053244;28;20449;-68
2023/03/05 04:26:05;;;;;;;0.70;0.70;;;0.10;96.20;;;;;;5053281;28;20199;-69
2023/03/05 04:28:31;;;;;;;0.70;0.70;;;0.10;96.30;;;;;;5053410;28;20433;-68
2023/03/05 04:30:56;;;;;;;8.57;2.15;;;0.10;96.30;;;;;;5053209;28;20776;-68
2023/03/05 04:33:22;;;;;;;0.87;0.87;;;0.20;96.40;;;;;;5053276;28;20220;-69
2023/03/05 04:35:49;;;;;;;0.30;0.30;;;0.20;96.20;;;;;;5053383;28;20166;-68
2023/03/05 04:38:15;;;;;;;0.40;0.40;;;0.20;96.10;;;;;;5053354;28;20260;-68
2023/03/05 04:40:40;;;;;;;3.17;3.07;;;0.10;96.20;;;;;;5053098;28;20281;-68
2023/03/05 04:43:06;;;;;;;0.70;0.70;;;0.10;96.10;;;;;;5053374;28;20557;-68
2023/03/05 04:45:32;;;;;;;0.37;0.37;;;0.00;96.20;;;;;;5035210;28;20182;-68
2023/03/05 04:47:57;;;;;;;0.40;0.40;;;-0.10;96.10;;;;;;5053266;28;20177;-68
2023/03/05 04:50:23;;;;;;;0.50;0.50;;;-0.10;96.30;;;;;;5053181;28;20452;-68
2023/03/05 04:52:49;;;;;;;1.47;1.37;;;-0.10;96.50;;;;;;5053082;28;20214;-68
2023/03/05 04:55:16;;;;;;;0.70;0.70;;;0.00;96.20;;;;;;5035041;28;20419;-68
2023/03/05 04:57:42;;;;;;;0.50;0.50;;;0.00;96.20;;;;;;5053342;28;20175;-69
2023/03/05 05:00:14;;;;;;;2.75;2.55;;;0.00;96.50;;;;;;5054169;28;20194;-68
2023/03/05 05:02:40;;;;;;;0.40;0.40;;;0.00;96.50;;;;;;5056898;28;20213;-68
2023/03/05 05:05:07;;;;;;;0.75;0.75;;;0.00;96.50;;;;;;5056967;28;20169;-68
2023/03/05 05:07:33;;;;;;;0.40;0.40;;;-0.10;96.70;;;;;;5057029;28;20205;-68
2023/03/05 05:09:58;;;;;;;0.57;0.57;;;-0.20;96.70;;;;;;5056881;28;20210;-68
2023/03/05 05:12:28;;;;;;;0.80;0.80;;;-0.20;96.80;;;;;;5057113;28;20213;-68
2023/03/05 05:14:54;;;;;;;2.00;0.85;;;-0.30;96.80;;;;;;5056830;28;20171;-68
2023/03/05 05:17:19;;;;;;;0.40;0.40;;;-0.40;96.80;;;;;;5056977;28;20170;-68
2023/03/05 05:19:45;;;;;;;0.40;0.40;;;-0.50;96.90;;;;;;5056697;28;20202;-68
2023/03/05 05:22:11;;;;;;;0.53;0.53;;;-0.40;97.10;;;;;;5056842;28;20170;-68
2023/03/05 05:24:36;;;;;;;1.17;1.17;;;-0.40;96.90;;;;;;5056683;28;20198;-68
2023/03/05 05:27:02;;;;;;;1.70;1.23;;;-0.40;96.80;;;;;;5056755;28;20171;-68
2023/03/05 05:29:27;;;;;;;0.50;0.50;;;-0.50;96.80;;;;;;5056630;28;20190;-68
2023/03/05 05:31:55;;;;;;;0.60;0.60;;;-0.50;97.00;;;;;;5056554;28;20178;-68
2023/03/05 05:34:20;;;;;;;0.30;0.30;;;-0.50;97.10;;;;;;5056501;28;20178;-68
2023/03/05 05:36:46;;;;;;;1.90;1.47;;;-0.50;97.10;;;;;;5056450;28;20231;-68
2023/03/05 05:39:12;;;;;;;0.40;0.40;;;-0.60;97.00;;;;;;5056384;28;20265;-68
2023/03/05 05:41:37;;;;;;;0.53;0.53;;;-0.60;97.10;;;;;;5056365;28;20184;-68
2023/03/05 05:44:03;;;;;;;0.50;0.50;;;-0.60;97.30;;;;;;5056160;28;20678;-68
2023/03/05 05:46:28;;;;;;;3.07;2.97;;;-0.50;97.50;;;;;;5056391;28;20162;-68
2023/03/05 05:48:54;;;;;;;0.53;0.53;;;-0.60;97.40;;;;;;5056542;28;20193;-68
2023/03/05 05:51:22;;;;;;;1.17;1.17;;;-0.60;97.40;;;;;;5056136;28;20175;-68
2023/03/05 05:53:48;;;;;;;1.15;1.13;;;-0.70;97.30;;;;;;5056091;28;20190;-68
2023/03/05 05:56:18;;;;;;;1.10;1.10;;;-0.70;97.40;;;;;;5056138;28;20175;-68
2023/03/05 05:58:46;;;;;;;0.52;0.52;;;-0.70;97.10;;;;;;5056126;28;20178;-68
2023/03/05 06:01:26;;;;;;;0.30;0.30;;;-0.80;97.30;;;;;;5055733;28;20189;-68
2023/03/05 06:03:52;;;;;;;0.68;0.60;;;-0.80;97.70;;;;;;5055977;28;20244;-68
2023/03/05 06:06:20;;;;;;;0.40;0.40;;;-0.70;97.80;;;;;;5055842;28;20174;-68
2023/03/05 06:08:46;;;;;;;0.70;0.70;;;-0.50;97.70;;;;;;5055812;28;20898;-68
2023/03/05 06:11:12;;;;;;;0.40;0.40;;;-0.50;97.60;;;;;;5037401;28;20189;-68
2023/03/05 06:13:38;;;;;;;0.47;0.47;;;-0.60;97.50;;;;;;5055738;28;20642;-68
2023/03/05 06:16:07;;;;;;;0.40;0.40;;;-0.60;97.50;;;;;;5037814;28;20227;-68
2023/03/05 06:18:34;;;;;;;0.30;0.30;;;-0.70;97.50;;;;;;5055909;28;20526;-68
2023/03/05 06:21:02;;;;;;;0.50;0.50;;;-0.70;97.60;;;;;;5055540;28;20194;-68
2023/03/05 06:23:28;;;;;;;0.40;0.40;;;-0.60;97.70;;;;;;5055492;28;20670;-68
2023/03/05 06:25:57;;;;;;;0.57;0.57;;;-0.60;97.70;;;;;;5055773;28;20185;-68
2023/03/05 06:28:23;;;;;;;0.40;0.40;;;-0.50;97.50;;;;;;5055654;28;20168;-68
2023/03/05 06:30:48;;;;;;;0.40;0.40;;;-0.60;97.40;;;;;;5055551;28;20277;-68
2023/03/05 06:33:14;;;;;;;1.00;0.60;;;-0.50;97.60;;;;;;5055305;28;20216;-68
2023/03/05 06:35:40;;;;;;;1.33;1.33;;;-0.40;97.60;;;;;;5037522;28;20193;-68
2023/03/05 06:38:06;;;;;;;0.90;0.90;;;-0.40;97.60;;;;;;5055409;28;20197;-68
2023/03/05 06:40:32;;;;;;;0.85;0.77;;;-0.40;97.40;;;;;;5055253;28;20859;-68
2023/03/05 06:42:58;;;;;;;1.53;1.23;;;-0.40;97.30;;;;;;5055103;28;20288;-68
2023/03/05 06:45:23;;;;;;;0.30;0.30;;;-0.30;97.10;;;;;;5055041;28;20185;-68
2023/03/05 06:47:49;;;;;;;0.30;0.30;;;-0.20;97.10;;;;;;5055317;28;20248;-68
2023/03/05 06:50:15;;;;;;;0.80;0.80;;;-0.30;97.10;;;;;;5055012;28;20189;-68
2023/03/05 06:52:40;;;;;;;0.30;0.30;;;-0.30;97.10;;;;;;5055289;28;20166;-68
2023/03/05 06:55:07;;;;;;;0.40;0.40;;;-0.20;97.20;;;;;;5054785;28;20201;-68
2023/03/05 06:57:33;;;;;;;0.40;0.40;;;-0.10;97.20;;;;;;5055141;28;20686;-68
2023/03/05 06:59:58;;;;;;;0.40;0.40;;;0.00;97.10;;;;;;5055128;28;20222;-68
2023/03/05 07:02:24;;;;;;;0.93;0.63;;;0.20;96.90;;;;;;5054774;28;20205;-68
2023/03/05 07:04:50;;;;;;;0.40;0.40;;;0.20;96.50;;;;;;5054756;28;20173;-68
2023/03/05 07:07:15;;;;;;;0.30;0.30;;;0.30;96.60;;;;;;5055095;28;20979;-68
2023/03/05 07:09:43;;;;;;;0.50;0.50;;;0.40;96.60;;;;;;5054758;28;20183;-69
2023/03/05 07:12:10;;;;;;;0.40;0.40;;;0.40;96.40;;;;;;5054685;28;20167;-68
2023/03/05 07:14:37;;;;;;;0.52;0.52;;;0.40;96.20;;;;;;5054483;28;20167;-68
2023/03/05 07:17:04;;;;;;;1.02;0.82;;;0.40;96.00;;;;;;5054649;28;20171;-68
2023/03/05 07:19:30;;;;;;;0.43;0.43;;;0.50;96.10;;;;;;5054474;28;20259;-68
2023/03/05 07:21:55;;;;;;;0.30;0.30;;;1.00;97.50;;;;;;5054261;28;20182;-68
2023/03/05 07:24:23;;;;;;;0.90;0.90;;;2.80;98.30;;;;;;5053646;28;20200;-69
2023/03/05 07:26:49;;;;;;;2.22;2.08;;;5.20;95.00;;;;;;5054356;28;20714;-69
2023/03/05 07:29:14;;;;;;;3.17;1.33;;;7.70;90.10;;;;;;5054241;28;20237;-69
2023/03/05 07:31:40;;;;;;;1.37;1.37;;;10.00;75.90;;;;;;5054313;28;20170;-69
2023/03/05 07:34:06;;;;;;;0.80;0.80;;;12.10;63.50;;;;;;5054087;28;20635;-69
2023/03/05 07:36:33;;;;;;;1.70;1.10;;;13.80;56.30;;;;;;5054474;28;20257;-70
2023/03/05 07:39:00;;;;;;;1.23;1.13;;;15.00;51.80;;;;;;5054308;28;20176;-69
2023/03/05 07:41:26;;;;;;;0.87;0.87;;;16.10;48.40;;;;;;5054327;28;20741;-70
2023/03/05 07:43:54;;;;;;;0.63;0.47;;;16.90;45.50;;;;;;5054065;28;20459;-70
2023/03/05 07:46:23;;;;;;;1.77;0.77;;;17.50;42.80;;;;;;5054156;28;20253;-70
2023/03/05 07:48:49;;;;;;;1.20;1.00;;;17.80;41.00;;;;;;5053987;28;20403;-70
2023/03/05 07:51:17;;;;;;;1.23;1.23;;;18.00;40.20;;;;;;5053940;28;20458;-70
2023/03/05 07:53:45;;;;;;;1.20;0.93;;;18.40;39.40;;;;;;5053878;28;20173;-70
2023/03/05 07:56:11;;;;;;;5.10;2.40;;;18.90;38.50;;;;;;5054032;28;20502;-70
2023/03/05 07:58:37;;;;;;;1.00;0.90;;;19.60;37.90;;;;;;5053894;28;20386;-70
2023/03/05 08:01:03;;;;;;;0.87;0.87;;;20.20;36.40;;;;;;5053575;28;20502;-70
2023/03/05 08:03:29;;;;;;;1.23;1.07;;;20.70;35.20;;;;;;5053689;28;20202;-70
2023/03/05 08:05:54;;;;;;;1.53;1.43;;;21.10;34.70;;;;;;5053860;28;20859;-70
2023/03/05 08:08:20;;;;;;;0.50;0.50;;;21.60;34.00;;;;;;5053871;28;20694;-70
2023/03/05 08:10:46;;;;;;;1.13;0.97;;;22.00;33.30;;;;;;5053576;28;20236;-70
2023/03/05 08:13:11;;;;;;;1.30;1.20;;;22.10;32.70;;;;;;5053272;28;20197;-70
2023/03/05 08:15:37;;;;;;;1.37;1.27;;;22.40;32.30;;;;;;5053505;28;20177;-70
2023/03/05 08:18:03;;;;;;;1.50;1.03;;;22.60;32.30;;;;;;5053651;28;20186;-70
2023/03/05 08:20:29;;;;;;;0.97;0.97;;;22.60;31.50;;;;;;5053393;28;20436;-71
2023/03/05 08:22:55;;;;;;;1.20;1.10;;;23.00;31.70;;;;;;5053293;28;20458;-70
2023/03/05 08:25:20;;;;;;;0.50;0.50;;;22.70;29.80;;;;;;5053264;28;20296;-70
2023/03/05 08:27:47;;;;;;;2.17;0.93;;;21.60;31.30;;;;;;5035551;28;20261;-70
2023/03/05 08:30:20;;;;;;;0.53;0.53;;;21.00;32.10;;;;;;5053535;28;20272;-70
2023/03/05 08:32:48;;;;;;;0.60;0.60;;;20.20;32.70;;;;;;5053513;28;20408;-70
2023/03/05 08:35:13;;;;;;;0.70;0.70;;;18.90;33.20;;;;;;5052630;28;20387;-70
2023/03/05 08:37:39;;;;;;;0.53;0.53;;;17.50;34.80;;;;;;5035300;28;20484;-70
2023/03/05 08:40:05;;;;;;;1.33;1.10;;;16.00;36.40;;;;;;5053140;28;20200;-69
2023/03/05 08:42:31;;;;;;;2.10;1.90;;;13.30;37.40;;;;;;5053250;28;20539;-69
2023/03/05 08:44:57;;;;;;;2.10;1.70;;;11.30;40.70;;;;;;5052886;28;20432;-69
2023/03/05 08:47:24;;;;;;;1.27;1.17;;;9.80;42.10;;;;;;5053104;28;20183;-69
2023/03/05 08:49:54;;;;;;;2.07;1.07;;;9.10;44.60;;;;;;5053040;28;20190;-69
2023/03/05 08:52:23;;;;;;;1.67;1.57;;;8.70;46.20;;;;;;5053033;28;20738;-69
2023/03/05 08:54:49;;;;;;;0.90;0.90;;;8.30;46.40;;;;;;5052896;28;20412;-69
2023/03/05 08:57:14;;;;;;;2.23;2.13;;;8.20;47.70;;;;;;5053055;28;20408;-69
2023/03/05 08:59:40;;;;;;;1.17;1.07;;;9.90;46.20;;;;;;5053063;28;20428;-69
2023/03/05 09:02:06;;;;;;;3.47;2.00;;;12.30;42.10;;;;;;5052981;28;20191;-70
2023/03/05 09:04:31;;;;;;;0.80;0.80;;;14.90;38.80;;;;;;5034942;28;20179;-70
2023/03/05 09:06:57;;;;;;;1.53;1.30;;;17.30;35.50;;;;;;5052973;28;20173;-70
2023/03/05 09:09:23;;;;;;;0.80;0.70;;;19.40;32.40;;;;;;5052803;28;20193;-70
2023/03/05 09:11:50;;;;;;;0.70;0.70;;;20.80;31.00;;;;;;5052883;28;20170;-70
2023/03/05 09:14:16;;;;;;;0.93;0.93;;;21.50;30.10;;;;;;5052766;28;20791;-70
2023/03/05 09:16:42;;;;;;;1.23;1.10;;;22.20;29.30;;;;;;5053021;28;20484;-70
2023/03/05 09:19:09;;;;;;;0.60;0.50;;;23.20;28.20;;;;;;5052741;28;20867;-70
2023/03/05 09:21:35;;;;;;;0.80;0.73;;;24.00;28.20;;;;;;5052810;28;20588;-71
2023/03/05 09:24:02;;;;;;;0.70;0.70;;;24.20;26.90;;;;;;5052697;28;20494;-70
2023/03/05 09:26:28;;;;;;;1.10;1.10;;;23.50;27.40;;;;;;5052849;28;20397;-70
2023/03/05 09:28:53;;;;;;;2.00;1.43;;;23.00;27.20;;;;;;5052821;28;20424;-70
2023/03/05 09:31:19;;;;;;;0.63;0.63;;;22.20;27.00;;;;;;5052793;28;20170;-70
2023/03/05 09:33:47;;;;;;;1.60;0.90;;;21.70;28.10;;;;;;5052513;28;20166;-70
2023/03/05 09:36:24;;;;;;;0.93;0.90;;;21.60;27.10;;;;;;5052698;28;20170;-70
2023/03/05 09:38:50;;;;;;;1.13;1.03;;;21.60;27.50;;;;;;5034743;28;20966;-70
2023/03/05 09:41:20;;;;;;;0.63;0.57;;;21.00;27.10;;;;;;5052634;28;20499;-70
2023/03/05 09:44:11;;;;;;;0.90;0.90;;;20.10;27.60;;;;;;5052480;28;20198;-70
2023/03/05 09:46:48;;;;;;;0.83;0.83;;;19.00;29.20;;;;;;5054557;28;20875;-70
2023/03/05 09:49:41;;;;;;;0.97;0.60;;;19.00;29.40;;;;;;5056287;28;20756;-70
2023/03/05 09:52:15;;;;;;;1.80;1.17;;;20.20;29.10;;;;;;5038353;28;20436;-70
2023/03/05 09:54:44;;;;;;;0.70;0.67;;;20.70;28.60;;;;;;5056169;28;20375;-70
2023/03/05 09:57:17;;;;;;;0.50;0.50;;;20.70;28.30;;;;;;5056223;28;20386;-70
2023/03/05 09:59:54;;;;;;;0.50;0.50;;;20.50;28.60;;;;;;5056193;28;20534;-70
2023/03/05 10:02:30;;;;;;;1.17;1.07;;;20.10;28.60;;;;;;5055963;28;20399;-70
2023/03/05 10:05:02;;;;;;;0.83;0.83;;;20.00;28.70;;;;;;5055867;28;20495;-70
2023/03/05 10:07:35;;;;;;;0.80;0.80;;;20.00;28.70;;;;;;5056173;28;20407;-70
2023/03/05 10:10:11;;;;;;;1.03;0.70;;;19.70;28.60;;;;;;5055863;28;20408;-70
2023/03/05 10:12:45;;;;;;;0.53;0.53;;;19.60;29.40;;;;;;5056234;28;20478;-70
2023/03/05 10:15:15;;;;;;;0.77;0.77;;;19.50;28.90;;;;;;5055806;28;20375;-70
2023/03/05 10:18:06;;;;;;;1.00;0.80;;;19.50;29.00;;;;;;5055772;28;20462;-70
2023/03/05 10:20:52;;;;;;;1.13;0.50;;;18.90;29.30;;;;;;5055811;28;20494;-70
2023/03/05 10:23:28;;;;;;;1.00;1.00;;;18.50;29.30;;;;;;5055037;28;20456;-70
2023/03/05 10:26:13;;;;;;;1.07;0.80;;;19.10;29.50;;;;;;5037774;28;20958;-70
2023/03/05 10:29:02;;;;;;;1.53;1.03;;;19.90;29.20;;;;;;5055678;28;20481;-70
2023/03/05 10:31:59;;;;;;;0.57;0.57;;;19.50;28.50;;;;;;5055514;28;20541;-70
2023/03/05 10:34:53;;;;;;;1.07;1.07;;;19.40;29.10;;;;;;5054764;28;20453;-70
2023/03/05 10:37:28;;;;;;;0.77;0.77;;;18.70;28.40;;;;;;5055611;28;21001;-70
2023/03/05 10:40:11;;;;;;;0.53;0.47;;;18.00;29.00;;;;;;5055426;28;20438;-70
2023/03/05 10:42:37;;;;;;;1.17;0.83;;;18.10;29.70;;;;;;5055168;28;20436;-70
2023/03/05 10:45:18;;;;;;;1.27;1.27;;;18.10;29.50;;;;;;5055113;28;20408;-70
2023/03/05 10:47:52;;;;;;;2.20;1.00;;;17.20;30.50;;;;;;5055296;28;20604;-70
2023/03/05 10:50:23;;;;;;;1.10;1.00;;;17.00;30.00;;;;;;5055228;28;20450;-70
2023/03/05 10:53:12;;;;;;;0.60;0.60;;;16.70;30.00;;;;;;5055026;28;20410;-70
2023/03/05 10:55:38;;;;;;;0.40;0.40;;;16.60;30.80;;;;;;5055281;28;20406;-70
2023/03/05 10:58:15;;;;;;;1.33;1.23;;;16.90;31.40;;;;;;5055140;28;20417;-70
2023/03/05 11:01:23;;;;;;;0.93;0.60;;;16.70;30.30;;;;;;5054755;28;20521;-70
2023/03/05 11:03:54;;;;;;;2.17;2.00;;;16.40;31.20;;;;;;5047816;28;20818;-70
2023/03/05 11:06:38;;;;;;;0.40;0.40;;;15.80;31.30;;;;;;5054980;28;20907;-69
2023/03/05 11:09:32;;;;;;;0.70;0.70;;;15.20;31.80;;;;;;5054878;28;20964;-70
2023/03/05 11:12:16;;;;;;;1.40;1.20;;;14.80;32.50;;;;;;5055005;28;20407;-70
2023/03/05 11:14:45;;;;;;;3.80;0.80;;;14.50;32.90;;;;;;5054765;28;20492;-70
2023/03/05 11:17:27;;;;;;;1.17;1.07;;;14.50;34.70;;;;;;5054769;28;20418;-70
2023/03/05 11:19:54;;;;;;;1.13;1.13;;;14.60;34.50;;;;;;5054692;28;20470;-70
2023/03/05 11:22:22;;;;;;;0.60;0.60;;;14.50;34.80;;;;;;5054675;28;20886;-69
2023/03/05 11:25:14;;;;;;;0.50;0.50;;;14.10;33.70;;;;;;5054326;28;20397;-70
2023/03/05 11:27:56;;;;;;;1.50;1.40;;;13.50;34.80;;;;;;5054675;28;20401;-69
2023/03/05 11:30:31;;;;;;;1.77;1.67;;;13.10;36.00;;;;;;5054515;28;20412;-69
2023/03/05 11:33:21;;;;;;;0.73;0.73;;;12.50;35.80;;;;;;5054292;28;20407;-69
2023/03/05 11:35:49;;;;;;;0.50;0.50;;;12.00;37.60;;;;;;5054503;28;20420;-69
2023/03/05 11:38:16;;;;;;;0.97;0.70;;;11.30;38.70;;;;;;5054443;28;20400;-69
2023/03/05 11:40:42;;;;;;;0.93;0.82;;;10.80;40.20;;;;;;5054086;28;20483;-69
2023/03/05 11:43:16;;;;;;;2.03;1.93;;;10.70;41.20;;;;;;5053913;28;20205;-69
2023/03/05 11:45:42;;;;;;;0.60;0.60;;;10.50;42.00;;;;;;5054374;28;20423;-70
2023/03/05 11:48:25;;;;;;;2.38;1.67;;;10.50;42.00;;;;;;5054182;28;20308;-69
2023/03/05 11:50:56;;;;;;;1.60;1.50;;;10.60;41.90;;;;;;5053972;28;20220;-69
2023/03/05 11:53:36;;;;;;;4.10;3.70;;;10.60;42.70;;;;;;5053954;28;20181;-69
2023/03/05 11:56:26;;;;;;;2.53;1.35;;;10.50;43.30;;;;;;5054048;28;20213;-69
2023/03/05 11:59:11;;;;;;;3.63;2.05;;;10.10;43.30;;;;;;5053790;28;20166;-69
2023/03/05 12:01:46;;;;;;;0.70;0.70;;;9.90;45.50;;;;;;5053566;28;20210;-69
2023/03/05 12:04:13;;;;;;;3.83;1.52;;;9.70;46.50;;;;;;5053571;28;20197;-69
2023/03/05 12:06:42;;;;;;;4.20;1.35;;;9.30;47.00;;;;;;5035875;28;20201;-69
2023/03/05 12:09:48;;;;;;;3.22;2.08;;;9.20;47.40;;;;;;5053213;28;20185;-69
2023/03/05 12:12:36;;;;;;;4.43;2.28;;;8.80;48.40;;;;;;5051689;28;20631;-69
2023/03/05 12:15:10;;;;;;;3.35;3.10;;;8.80;49.40;;;;;;5035624;28;20174;-69
2023/03/05 12:17:39;;;;;;;2.20;2.05;;;8.90;49.60;;;;;;5053690;28;20189;-69
2023/03/05 12:20:56;;;;;;;1.90;1.80;;;9.00;48.70;;;;;;5053417;28;20279;-69
2023/03/05 12:23:22;;;;;;;1.42;1.42;;;8.90;49.10;;;;;;5027780;28;20244;-69
2023/03/05 12:25:55;;;;;;;1.95;1.85;;;8.80;49.50;;;;;;5053440;28;20189;-69
2023/03/05 12:28:33;;;;;;;1.60;1.60;;;8.60;50.10;;;;;;5053625;28;20177;-69
2023/03/05 12:31:00;;;;;;;4.80;1.75;;;8.70;50.50;;;;;;5035368;28;20208;-69
2023/03/05 12:33:36;;;;;;;1.20;1.20;;;8.50;49.70;;;;;;5053120;28;20536;-69
2023/03/05 12:36:20;;;;;;;6.82;4.30;;;8.40;50.50;;;;;;5053378;28;20201;-69
2023/03/05 12:38:50;;;;;;;4.75;4.43;;;8.40;50.70;;;;;;5053278;28;20260;-69
2023/03/05 12:41:22;;;;;;;2.47;2.33;;;8.60;50.60;;;;;;5053222;28;20241;-69
2023/03/05 12:44:06;;;;;;;1.17;1.17;;;8.40;49.90;;;;;;5052921;28;20544;-69
2023/03/05 12:46:36;;;;;;;2.10;1.95;;;8.10;50.70;;;;;;5053266;28;20166;-69
2023/03/05 12:49:17;;;;;;;1.50;1.42;;;7.90;51.10;;;;;;5053236;28;20221;-69
2023/03/05 12:51:44;;;;;;;2.88;1.60;;;8.00;51.20;;;;;;5053010;28;20720;-69
2023/03/05 12:54:32;;;;;;;3.30;2.45;;;8.10;51.20;;;;;;5053170;28;20559;-69
2023/03/05 12:57:03;;;;;;;1.58;1.35;;;8.30;51.40;;;;;;5053159;28;20170;-69
2023/03/05 12:59:53;;;;;;;5.80;3.35;;;8.20;51.00;;;;;;5035078;28;20201;-69
2023/03/05 13:02:26;;;;;;;5.13;2.95;;;8.40;50.90;;;;;;5052914;28;20235;-69
2023/03/05 13:05:01;;;;;;;3.15;1.65;;;8.70;50.10;;;;;;5052891;28;20255;-69